Time;durP1;ratioP1;P1;durP2;ratioP2;P2;SDS_P1;SDS_P2;PMS_P1;PMS_P2;Temp;Humidity;BMP_temperature;BMP_pressure;BME280_temperature;BME280_humidity;BME280_pressure;Samples;Min_cycle;Max_cycle;Signal;HPM_P1;HPM_P2
2023/01/05 00:01:02;;;;;;;4.30;1.90;;;9.50;99.90;;;;;;4988288;28;20213;-68
2023/01/05 00:03:29;;;;;;;4.60;1.77;;;9.50;99.90;;;;;;4988384;28;20194;-68
2023/01/05 00:06:00;;;;;;;5.93;1.77;;;9.60;99.90;;;;;;4987931;28;20732;-68
2023/01/05 00:08:27;;;;;;;5.40;1.50;;;9.60;99.90;;;;;;4988341;28;20186;-67
2023/01/05 00:24:43;;;;;;;4.67;1.70;;;9.70;99.90;;;;;;4991939;28;20193;-68
2023/01/05 00:27:09;;;;;;;6.60;1.80;;;9.70;99.90;;;;;;4991745;28;20263;-68
2023/01/05 00:29:36;;;;;;;5.33;1.70;;;9.70;99.90;;;;;;4991763;28;20643;-68
2023/01/05 00:32:03;;;;;;;7.60;2.00;;;9.70;99.90;;;;;;4991629;28;20206;-68
2023/01/05 00:34:30;;;;;;;4.07;1.73;;;9.70;99.90;;;;;;4991402;28;20198;-68
2023/01/05 00:36:58;;;;;;;4.43;1.90;;;9.80;99.90;;;;;;4991491;28;20968;-68
2023/01/05 00:39:25;;;;;;;5.00;1.53;;;9.80;99.90;;;;;;4991713;28;20313;-68
2023/01/05 00:41:52;;;;;;;3.73;1.40;;;9.80;99.90;;;;;;4990720;28;20249;-68
2023/01/05 00:44:19;;;;;;;7.33;1.97;;;9.80;99.90;;;;;;4991534;28;20293;-68
2023/01/05 00:46:46;;;;;;;4.30;2.00;;;9.70;99.90;;;;;;4990291;28;20328;-68
2023/01/05 00:49:13;;;;;;;4.40;1.70;;;9.70;99.90;;;;;;4991417;28;20803;-68
2023/01/05 00:51:40;;;;;;;4.57;1.70;;;9.70;99.90;;;;;;4992024;28;20635;-68
2023/01/05 00:54:08;;;;;;;4.83;1.53;;;9.70;99.90;;;;;;4991513;28;20289;-68
2023/01/05 00:56:35;;;;;;;4.00;1.80;;;9.70;99.90;;;;;;4991372;28;20308;-68
2023/01/05 00:59:02;;;;;;;7.73;1.87;;;9.70;99.90;;;;;;4991834;28;20301;-68
2023/01/05 01:01:29;;;;;;;7.37;2.23;;;9.70;99.90;;;;;;4991592;28;20293;-68
2023/01/05 01:03:56;;;;;;;5.47;1.90;;;9.70;99.90;;;;;;4991603;28;20289;-67
2023/01/05 01:06:24;;;;;;;7.87;2.10;;;9.70;99.90;;;;;;4991282;28;20329;-68
2023/01/05 01:08:51;;;;;;;6.53;2.07;;;9.80;99.90;;;;;;4991327;28;20777;-68
2023/01/05 01:11:20;;;;;;;7.33;1.80;;;9.80;99.90;;;;;;4991344;28;20210;-68
2023/01/05 01:13:46;;;;;;;7.30;2.10;;;9.80;99.90;;;;;;4991043;28;20218;-68
2023/01/05 01:16:15;;;;;;;4.63;1.67;;;9.80;99.90;;;;;;4981954;28;20326;-68
2023/01/05 01:18:42;;;;;;;6.80;1.97;;;9.80;99.90;;;;;;4971422;28;20301;-68
2023/01/05 01:21:09;;;;;;;4.57;1.70;;;9.80;99.90;;;;;;4971709;28;20290;-68
2023/01/05 01:23:37;;;;;;;5.23;2.03;;;9.80;99.90;;;;;;4989665;28;20659;-68
2023/01/05 01:26:04;;;;;;;6.30;1.90;;;9.90;99.90;;;;;;4990544;28;20237;-68
2023/01/05 01:28:33;;;;;;;3.93;1.50;;;9.80;99.90;;;;;;4991115;28;20206;-68
2023/01/05 01:31:00;;;;;;;6.20;2.10;;;9.80;99.90;;;;;;4990857;28;20312;-68
2023/01/05 01:33:27;;;;;;;10.93;2.33;;;9.80;99.90;;;;;;4989227;28;20681;-68
2023/01/05 01:35:54;;;;;;;7.10;1.90;;;9.70;99.90;;;;;;4991117;28;20214;-68
2023/01/05 01:38:21;;;;;;;7.17;2.00;;;9.70;99.90;;;;;;4990184;28;20236;-68
2023/01/05 01:40:49;;;;;;;5.67;1.87;;;9.70;99.90;;;;;;4990730;28;20298;-68
2023/01/05 01:43:18;;;;;;;7.87;2.50;;;9.70;99.90;;;;;;4990219;28;20210;-68
2023/01/05 01:45:46;;;;;;;6.67;1.83;;;9.70;99.90;;;;;;4990708;28;20249;-68
2023/01/05 01:48:17;;;;;;;8.30;1.70;;;9.70;99.90;;;;;;4990276;28;20321;-68
2023/01/05 01:50:47;;;;;;;5.80;1.60;;;9.70;99.90;;;;;;4990607;28;20241;-68
2023/01/05 01:53:18;;;;;;;7.97;1.93;;;9.80;99.90;;;;;;4975191;28;20199;-68
2023/01/05 01:55:45;;;;;;;5.00;1.77;;;9.80;99.90;;;;;;4971044;28;20305;-70
2023/01/05 01:58:17;;;;;;;4.03;1.90;;;9.80;99.90;;;;;;4970891;28;20210;-68
2023/01/05 02:00:46;;;;;;;5.50;1.60;;;9.80;99.90;;;;;;4971040;28;20266;-68
2023/01/05 02:03:15;;;;;;;5.73;1.63;;;9.80;99.90;;;;;;4970697;28;20297;-68
2023/01/05 02:05:41;;;;;;;5.23;1.67;;;9.80;99.90;;;;;;4985019;28;20228;-68
2023/01/05 02:08:12;;;;;;;6.77;1.93;;;9.90;99.90;;;;;;4989908;28;20321;-68
2023/01/05 02:11:03;;;;;;;5.47;1.57;;;9.90;99.90;;;;;;4990192;28;20206;-68
2023/01/05 02:13:43;;;;;;;5.97;1.53;;;9.90;99.90;;;;;;4989821;28;20287;-68
2023/01/05 02:16:20;;;;;;;4.57;1.63;;;9.90;99.90;;;;;;4981201;28;20247;-68
2023/01/05 02:19:02;;;;;;;3.57;1.70;;;9.90;99.90;;;;;;4970509;28;20282;-68
2023/01/05 02:21:36;;;;;;;6.80;2.17;;;9.90;99.90;;;;;;4971561;28;20205;-68
2023/01/05 02:24:33;;;;;;;8.67;1.83;;;9.80;99.90;;;;;;4989387;28;20619;-68
2023/01/05 02:27:28;;;;;;;6.23;1.80;;;9.90;99.90;;;;;;4989177;28;20771;-68
2023/01/05 02:30:28;;;;;;;4.50;1.80;;;9.90;99.90;;;;;;4989837;28;20286;-68
2023/01/05 02:33:01;;;;;;;9.13;1.83;;;9.90;99.90;;;;;;4989093;28;20206;-68
2023/01/05 02:35:34;;;;;;;6.80;1.60;;;9.80;99.90;;;;;;4984593;28;20324;-68
2023/01/05 02:38:06;;;;;;;3.37;1.30;;;9.90;99.90;;;;;;4989779;28;20210;-68
2023/01/05 02:40:39;;;;;;;3.27;1.50;;;9.90;99.90;;;;;;4989708;28;20285;-68
2023/01/05 02:43:08;;;;;;;3.27;1.40;;;9.90;99.90;;;;;;4988873;28;20728;-68
2023/01/05 02:45:35;;;;;;;3.77;1.87;;;10.00;99.90;;;;;;4987443;28;20305;-68
2023/01/05 02:48:04;;;;;;;5.20;1.70;;;9.90;99.90;;;;;;4989072;28;20241;-68
2023/01/05 02:50:36;;;;;;;6.87;1.90;;;9.90;99.90;;;;;;4989695;28;20569;-68
2023/01/05 02:53:09;;;;;;;4.97;1.63;;;9.90;99.90;;;;;;4989282;28;20292;-68
2023/01/05 02:55:41;;;;;;;3.90;1.60;;;9.90;99.90;;;;;;4989323;28;20337;-68
2023/01/05 02:58:14;;;;;;;3.47;1.63;;;9.90;99.90;;;;;;4989373;28;20194;-68
2023/01/05 03:00:44;;;;;;;5.53;1.87;;;9.90;99.90;;;;;;4989412;28;20198;-68
2023/01/05 03:03:17;;;;;;;2.70;1.43;;;10.00;99.90;;;;;;4989262;28;20226;-68
2023/01/05 03:05:52;;;;;;;3.20;1.37;;;9.90;99.90;;;;;;4989833;28;20277;-68
2023/01/05 03:08:22;;;;;;;6.00;1.60;;;10.00;99.90;;;;;;4989325;28;20318;-68
2023/01/05 03:13:50;;;;;;;4.63;1.37;;;9.90;99.90;;;;;;4988961;28;20699;-68
2023/01/05 03:16:22;;;;;;;2.83;1.60;;;9.90;99.90;;;;;;4979432;28;20721;-68
2023/01/05 03:35:33;;;;;;;4.23;1.47;;;10.00;99.90;;;;;;4986631;28;20209;-68
2023/01/05 03:38:07;;;;;;;4.43;1.50;;;10.00;99.90;;;;;;4986371;28;20245;-67
2023/01/05 03:40:36;;;;;;;3.17;1.30;;;10.00;99.90;;;;;;4986787;28;20724;-67
2023/01/05 03:43:05;;;;;;;3.27;1.23;;;10.00;99.90;;;;;;4986084;28;20222;-68
2023/01/05 03:45:39;;;;;;;4.13;1.63;;;10.00;99.90;;;;;;4986255;28;20556;-68
2023/01/05 03:48:07;;;;;;;3.70;1.50;;;10.00;99.90;;;;;;4985943;28;20246;-68
2023/01/05 03:50:35;;;;;;;3.17;1.37;;;10.00;99.90;;;;;;4986457;28;20210;-68
2023/01/05 03:53:02;;;;;;;3.33;1.20;;;10.00;99.90;;;;;;4986147;28;20740;-68
2023/01/05 03:55:29;;;;;;;4.13;1.47;;;10.00;99.90;;;;;;4985382;28;20217;-69
2023/01/05 03:57:56;;;;;;;5.43;1.50;;;10.10;99.90;;;;;;4986506;28;20210;-70
2023/01/05 04:00:23;;;;;;;2.77;1.13;;;10.10;99.90;;;;;;4985976;28;20206;-69
2023/01/05 04:02:51;;;;;;;2.70;1.47;;;10.10;99.90;;;;;;4984579;28;20198;-69
2023/01/05 04:05:18;;;;;;;2.87;1.10;;;10.10;99.90;;;;;;4986461;28;20209;-69
2023/01/05 04:07:46;;;;;;;1.40;1.07;;;10.10;99.90;;;;;;4988036;28;20340;-69
2023/01/05 04:10:13;;;;;;;2.43;1.30;;;10.10;99.90;;;;;;4986846;28;20285;-70
2023/01/05 04:12:40;;;;;;;2.33;1.20;;;10.00;99.90;;;;;;4987405;28;20305;-70
2023/01/05 04:15:08;;;;;;;4.30;1.03;;;10.00;99.90;;;;;;4987592;28;20649;-69
2023/01/05 04:17:35;;;;;;;3.67;1.47;;;9.90;99.90;;;;;;4987734;28;20306;-69
2023/01/05 04:20:03;;;;;;;2.03;1.40;;;9.90;99.90;;;;;;4987610;28;20296;-69
2023/01/05 04:22:30;;;;;;;4.70;1.30;;;9.80;99.90;;;;;;4987774;28;20312;-69
2023/01/05 04:24:58;;;;;;;3.10;1.50;;;9.80;99.90;;;;;;4988074;28;20284;-70
2023/01/05 04:27:25;;;;;;;2.90;1.03;;;9.80;99.90;;;;;;4981651;28;20333;-70
2023/01/05 04:29:52;;;;;;;4.60;1.50;;;9.80;99.90;;;;;;4987594;28;20216;-69
2023/01/05 04:32:19;;;;;;;3.17;1.00;;;9.90;99.90;;;;;;4987638;28;20241;-69
2023/01/05 04:34:46;;;;;;;2.80;1.10;;;10.00;99.90;;;;;;4987572;28;20703;-69
2023/01/05 04:37:12;;;;;;;3.93;1.43;;;10.00;99.90;;;;;;4987560;28;20238;-69
2023/01/05 04:39:39;;;;;;;2.70;1.03;;;10.00;99.90;;;;;;4987833;28;20205;-70
2023/01/05 04:42:08;;;;;;;2.57;1.60;;;10.00;99.90;;;;;;4987586;28;20215;-70
2023/01/05 04:44:34;;;;;;;2.60;1.10;;;10.00;99.90;;;;;;4987788;28;20210;-70
2023/01/05 04:47:01;;;;;;;4.00;1.40;;;10.00;99.90;;;;;;4987554;28;20238;-69
2023/01/05 04:49:28;;;;;;;2.23;0.83;;;9.90;99.90;;;;;;4987573;28;20233;-69
2023/01/05 04:51:55;;;;;;;2.70;1.00;;;9.80;99.90;;;;;;4987974;28;20298;-70
2023/01/05 04:54:22;;;;;;;2.93;0.90;;;9.70;99.90;;;;;;4987659;28;20202;-69
2023/01/05 04:56:49;;;;;;;1.93;1.07;;;9.60;99.90;;;;;;4987368;28;20245;-69
2023/01/05 04:59:17;;;;;;;3.03;1.40;;;9.50;99.90;;;;;;4987410;28;20557;-70
2023/01/05 05:01:44;;;;;;;4.63;1.43;;;9.40;99.90;;;;;;4987586;28;20221;-69
2023/01/05 05:04:11;;;;;;;4.53;1.33;;;9.40;99.90;;;;;;4987614;28;20296;-70
2023/01/05 05:06:38;;;;;;;4.57;1.53;;;9.40;99.90;;;;;;4988002;28;20214;-69
2023/01/05 05:09:05;;;;;;;3.13;1.83;;;9.40;99.90;;;;;;4991184;28;20325;-70
2023/01/05 05:11:32;;;;;;;4.10;1.80;;;9.30;99.90;;;;;;4991391;28;20297;-69
2023/01/05 05:13:59;;;;;;;5.37;1.57;;;9.30;99.90;;;;;;4991177;28;20216;-70
2023/01/05 05:16:27;;;;;;;4.20;1.50;;;9.30;99.90;;;;;;4990814;28;20333;-69
2023/01/05 05:18:54;;;;;;;5.13;1.77;;;9.30;99.90;;;;;;4990772;28;20783;-69
2023/01/05 05:21:21;;;;;;;5.43;1.50;;;9.30;99.90;;;;;;4991227;28;20233;-70
2023/01/05 05:23:47;;;;;;;6.53;2.00;;;9.30;99.90;;;;;;4987856;28;20656;-70
2023/01/05 05:26:14;;;;;;;5.17;1.80;;;9.20;99.90;;;;;;4991004;28;20217;-69
2023/01/05 05:28:41;;;;;;;4.07;1.70;;;9.20;99.90;;;;;;4991102;28;20336;-70
2023/01/05 05:31:08;;;;;;;4.00;1.47;;;9.20;99.90;;;;;;4990766;28;20297;-69
2023/01/05 05:33:37;;;;;;;2.80;1.60;;;9.20;99.90;;;;;;4990737;28;20288;-69
2023/01/05 05:36:05;;;;;;;8.50;1.80;;;9.20;99.90;;;;;;4990461;28;20210;-69
2023/01/05 05:38:32;;;;;;;2.23;1.30;;;9.20;99.90;;;;;;4990495;28;20257;-69
2023/01/05 05:40:59;;;;;;;5.90;1.90;;;9.20;99.90;;;;;;4990505;28;20669;-69
2023/01/05 05:43:25;;;;;;;3.27;1.40;;;9.20;99.90;;;;;;4990188;28;20212;-69
2023/01/05 05:45:52;;;;;;;2.23;1.17;;;9.20;99.90;;;;;;4990383;28;20314;-69
2023/01/05 05:48:19;;;;;;;4.63;1.57;;;9.20;99.90;;;;;;4989908;28;20375;-70
2023/01/05 05:50:47;;;;;;;4.43;1.40;;;9.30;99.90;;;;;;4990654;28;20286;-70
2023/01/05 05:53:15;;;;;;;2.20;1.47;;;9.30;99.90;;;;;;4990337;28;20313;-69
2023/01/05 05:55:42;;;;;;;3.03;1.57;;;9.30;99.90;;;;;;4990307;28;20285;-69
2023/01/05 05:58:11;;;;;;;5.33;1.13;;;9.40;99.90;;;;;;4989912;28;20261;-69
2023/01/05 06:00:38;;;;;;;3.27;1.50;;;9.40;99.90;;;;;;4990395;28;20242;-69
2023/01/05 06:03:05;;;;;;;3.67;1.30;;;9.30;99.90;;;;;;4989338;28;20310;-69
2023/01/05 06:05:32;;;;;;;3.07;1.10;;;9.30;99.90;;;;;;4978643;28;20227;-69
2023/01/05 06:08:00;;;;;;;1.20;1.10;;;9.40;99.90;;;;;;4970322;28;20737;-69
2023/01/05 06:10:27;;;;;;;2.30;1.20;;;9.30;99.90;;;;;;4970753;28;20245;-69
2023/01/05 06:12:54;;;;;;;4.07;1.40;;;9.30;99.90;;;;;;4985241;28;20242;-69
2023/01/05 06:15:22;;;;;;;2.83;1.20;;;9.30;99.90;;;;;;4989686;28;20333;-69
2023/01/05 06:17:49;;;;;;;3.03;1.20;;;9.30;99.90;;;;;;4989924;28;20663;-69
2023/01/05 06:20:17;;;;;;;2.07;1.27;;;9.20;99.90;;;;;;4988937;28;20210;-69
2023/01/05 06:22:44;;;;;;;1.57;1.03;;;9.10;99.90;;;;;;5000493;28;20202;-69
2023/01/05 06:25:12;;;;;;;2.97;1.27;;;9.10;99.90;;;;;;5009348;28;20206;-69
2023/01/05 06:27:39;;;;;;;2.87;1.20;;;9.10;99.90;;;;;;5009184;28;20340;-69
2023/01/05 06:30:07;;;;;;;3.60;1.00;;;9.10;99.90;;;;;;5008974;28;20759;-69
2023/01/05 06:32:34;;;;;;;1.77;0.80;;;9.00;99.90;;;;;;4990400;28;20250;-69
2023/01/05 06:35:01;;;;;;;0.97;0.90;;;9.10;99.90;;;;;;4989647;28;20292;-69
2023/01/05 06:37:28;;;;;;;3.20;0.80;;;9.10;99.90;;;;;;4989465;28;20306;-69
2023/01/05 06:39:55;;;;;;;0.70;0.57;;;9.10;99.90;;;;;;4989180;28;20759;-69
2023/01/05 06:42:23;;;;;;;1.27;0.70;;;9.10;99.90;;;;;;4988943;28;20562;-69
2023/01/05 06:44:50;;;;;;;0.87;0.87;;;9.00;99.90;;;;;;4989255;28;20735;-69
2023/01/05 06:47:17;;;;;;;3.30;0.70;;;9.00;99.90;;;;;;4971430;28;20335;-69
2023/01/05 06:49:44;;;;;;;1.20;0.57;;;9.00;99.90;;;;;;4969665;28;20203;-68
2023/01/05 06:52:11;;;;;;;1.50;0.60;;;9.00;99.90;;;;;;4969180;28;20213;-69
2023/01/05 06:54:38;;;;;;;0.83;0.80;;;9.00;99.90;;;;;;4969878;28;20211;-69
2023/01/05 06:57:05;;;;;;;1.50;0.80;;;9.00;99.90;;;;;;4984928;28;20294;-69
2023/01/05 06:59:33;;;;;;;0.37;0.37;;;9.00;99.90;;;;;;4989265;28;20265;-69
2023/01/05 07:02:00;;;;;;;0.93;0.50;;;9.10;99.90;;;;;;4989187;28;20206;-69
2023/01/05 07:04:27;;;;;;;1.47;0.87;;;9.10;99.90;;;;;;4988823;28;20297;-69
2023/01/05 07:06:54;;;;;;;1.87;0.70;;;9.10;99.90;;;;;;4989174;28;20252;-70
2023/01/05 07:09:21;;;;;;;0.93;0.77;;;9.20;99.90;;;;;;4972262;28;20329;-69
2023/01/05 07:11:48;;;;;;;0.97;0.70;;;9.20;99.90;;;;;;4969375;28;20254;-69
2023/01/05 07:14:15;;;;;;;0.57;0.27;;;9.20;99.90;;;;;;4968983;28;20298;-69
2023/01/05 07:16:43;;;;;;;1.00;0.50;;;9.20;99.90;;;;;;4988608;28;20210;-69
2023/01/05 07:19:10;;;;;;;0.87;0.47;;;9.20;99.90;;;;;;4988199;28;20301;-70
2023/01/05 07:21:37;;;;;;;1.07;0.70;;;9.20;99.90;;;;;;4988843;28;20212;-69
2023/01/05 07:24:05;;;;;;;0.83;0.47;;;9.20;99.90;;;;;;4988586;28;20216;-69
2023/01/05 07:26:32;;;;;;;0.40;0.40;;;9.20;99.90;;;;;;4988844;28;20206;-69
2023/01/05 07:28:58;;;;;;;0.40;0.30;;;9.20;99.90;;;;;;4988502;28;20700;-69
2023/01/05 07:31:25;;;;;;;0.50;0.50;;;9.30;99.90;;;;;;4987455;28;20296;-69
2023/01/05 07:33:53;;;;;;;0.20;0.20;;;9.30;99.90;;;;;;4988008;28;20213;-69
2023/01/05 07:36:20;;;;;;;1.43;0.60;;;9.20;99.90;;;;;;4988536;28;20289;-69
2023/01/05 07:38:47;;;;;;;0.77;0.20;;;9.20;99.90;;;;;;4988541;28;20296;-69
2023/01/05 07:41:14;;;;;;;0.67;0.30;;;9.20;99.90;;;;;;4988155;28;20245;-69
2023/01/05 07:43:41;;;;;;;0.23;0.23;;;9.20;99.90;;;;;;4988166;28;20216;-69
2023/01/05 07:46:09;;;;;;;0.40;0.40;;;9.20;99.90;;;;;;4988319;28;20305;-69
2023/01/05 07:48:36;;;;;;;1.67;0.30;;;9.10;99.90;;;;;;4987842;28;20238;-69
2023/01/05 07:51:05;;;;;;;0.70;0.23;;;9.10;99.90;;;;;;4988321;28;20305;-69
2023/01/05 07:53:36;;;;;;;0.60;0.50;;;9.10;99.90;;;;;;4988237;28;20210;-69
2023/01/05 07:56:04;;;;;;;0.97;0.47;;;9.10;99.90;;;;;;4988300;28;20732;-69
2023/01/05 07:58:32;;;;;;;0.73;0.50;;;9.10;99.90;;;;;;4988049;28;20305;-69
2023/01/05 08:01:03;;;;;;;0.20;0.20;;;9.00;99.90;;;;;;4988174;28;20237;-70
2023/01/05 08:03:30;;;;;;;1.93;1.77;;;9.10;99.90;;;;;;4987936;28;20190;-69
2023/01/05 08:05:57;;;;;;;0.30;0.30;;;9.00;99.90;;;;;;4968565;28;20207;-69
2023/01/05 08:08:25;;;;;;;0.63;0.23;;;9.10;99.90;;;;;;4968425;28;20322;-69
2023/01/05 08:10:52;;;;;;;0.83;0.10;;;9.10;99.90;;;;;;4971288;28;20285;-69
2023/01/05 08:16:04;;;;;;;0.57;0.20;;;9.10;99.90;;;;;;4987462;28;20301;-69
2023/01/05 08:18:31;;;;;;;0.63;0.30;;;9.00;99.90;;;;;;4987882;28;20210;-69
2023/01/05 08:20:59;;;;;;;0.70;0.60;;;9.10;99.90;;;;;;4987977;28;20229;-69
2023/01/05 08:23:28;;;;;;;0.40;0.30;;;9.10;99.90;;;;;;4999851;28;20210;-69
2023/01/05 08:25:55;;;;;;;1.47;0.20;;;9.10;99.90;;;;;;4987651;28;20216;-69
2023/01/05 08:28:22;;;;;;;0.97;0.30;;;9.10;99.90;;;;;;4987589;28;20605;-69
2023/01/05 08:30:49;;;;;;;0.40;0.33;;;9.10;99.90;;;;;;4987850;28;20206;-69
2023/01/05 08:33:16;;;;;;;2.63;0.30;;;9.10;99.90;;;;;;4987495;28;20203;-70
2023/01/05 08:35:45;;;;;;;1.60;0.47;;;9.10;99.90;;;;;;4987729;28;20610;-69
2023/01/05 08:38:11;;;;;;;0.10;0.10;;;9.20;99.90;;;;;;4987723;28;20651;-70
2023/01/05 08:40:40;;;;;;;0.63;0.50;;;9.20;99.90;;;;;;4987565;28;20210;-69
2023/01/05 08:43:07;;;;;;;1.80;1.70;;;9.20;99.90;;;;;;4990169;28;20252;-70
2023/01/05 08:45:34;;;;;;;0.43;0.40;;;9.20;99.90;;;;;;4991610;28;20301;-69
2023/01/05 08:48:02;;;;;;;0.87;0.40;;;9.20;99.90;;;;;;4991209;28;20464;-69
2023/01/05 08:50:29;;;;;;;0.97;0.27;;;9.20;99.90;;;;;;4991552;28;20301;-69
2023/01/05 08:52:56;;;;;;;0.13;0.13;;;9.20;99.90;;;;;;4991332;28;20232;-69
2023/01/05 08:55:23;;;;;;;2.10;0.53;;;9.20;99.90;;;;;;4990992;28;20716;-69
2023/01/05 08:57:51;;;;;;;1.07;0.50;;;9.20;99.90;;;;;;4991334;28;20297;-69
2023/01/05 09:00:20;;;;;;;0.70;0.30;;;9.20;99.90;;;;;;4991216;28;20293;-69
2023/01/05 09:02:47;;;;;;;0.77;0.63;;;9.20;99.90;;;;;;4991153;28;20210;-69
2023/01/05 09:05:15;;;;;;;0.97;0.50;;;9.20;99.90;;;;;;4991072;28;20815;-69
2023/01/05 09:07:42;;;;;;;1.03;0.60;;;9.20;99.90;;;;;;4991063;28;20309;-69
2023/01/05 09:10:09;;;;;;;1.20;0.60;;;9.30;99.90;;;;;;4990930;28;20328;-69
2023/01/05 09:12:36;;;;;;;0.70;0.57;;;9.30;99.90;;;;;;4990976;28;20812;-69
2023/01/05 09:15:06;;;;;;;0.60;0.20;;;9.20;99.90;;;;;;4990704;28;20238;-70
2023/01/05 09:17:37;;;;;;;0.67;0.33;;;9.20;99.90;;;;;;4991034;28;20225;-70
2023/01/05 09:20:07;;;;;;;0.37;0.37;;;9.20;99.90;;;;;;4991096;28;20206;-70
2023/01/05 09:22:35;;;;;;;0.47;0.47;;;9.20;99.90;;;;;;4991007;28;20210;-70
2023/01/05 09:25:02;;;;;;;1.37;0.67;;;9.30;99.90;;;;;;4990820;28;20210;-70
2023/01/05 09:27:29;;;;;;;0.70;0.53;;;9.40;99.90;;;;;;4991163;28;20221;-70
2023/01/05 09:29:55;;;;;;;1.30;0.50;;;9.50;99.90;;;;;;4991138;28;20605;-69
2023/01/05 09:32:24;;;;;;;0.83;0.47;;;9.60;99.90;;;;;;4990724;28;20767;-69
2023/01/05 09:34:50;;;;;;;0.70;0.40;;;9.60;99.90;;;;;;4991025;28;20716;-69
2023/01/05 09:37:17;;;;;;;1.00;0.70;;;9.70;99.90;;;;;;4990849;28;20648;-69
2023/01/05 09:39:44;;;;;;;2.20;0.90;;;9.60;99.90;;;;;;4990913;28;20206;-69
2023/01/05 09:42:16;;;;;;;2.97;1.20;;;9.60;99.90;;;;;;4990783;28;20301;-70
2023/01/05 09:44:47;;;;;;;3.67;0.93;;;9.60;99.90;;;;;;4990866;28;20371;-70
2023/01/05 09:47:20;;;;;;;2.80;0.90;;;9.60;99.90;;;;;;4990720;28;20230;-70
2023/01/05 09:49:50;;;;;;;1.23;0.87;;;9.60;99.90;;;;;;4990714;28;20234;-70
2023/01/05 09:52:21;;;;;;;1.27;0.60;;;9.70;99.90;;;;;;4990306;28;20225;-70
2023/01/05 09:54:48;;;;;;;1.03;0.80;;;9.70;99.90;;;;;;4989582;28;20285;-70
2023/01/05 09:57:19;;;;;;;1.80;0.70;;;9.90;99.90;;;;;;4990575;28;20202;-70
2023/01/05 09:59:48;;;;;;;1.43;0.70;;;9.90;99.90;;;;;;4990260;28;20292;-70
2023/01/05 10:02:20;;;;;;;3.10;0.80;;;10.00;99.90;;;;;;4990098;28;20301;-70
2023/01/05 10:04:49;;;;;;;1.97;1.10;;;10.00;99.90;;;;;;4989536;28;20755;-70
2023/01/05 10:07:26;;;;;;;1.57;0.63;;;10.00;99.90;;;;;;4990233;28;20306;-70
2023/01/05 10:09:55;;;;;;;2.90;1.00;;;9.90;99.90;;;;;;4990250;28;20616;-70
2023/01/05 10:15:14;;;;;;;2.50;0.70;;;9.70;99.90;;;;;;4989679;28;20245;-70
2023/01/05 10:17:43;;;;;;;2.17;1.00;;;9.60;99.90;;;;;;4989466;28;20309;-69
2023/01/05 10:20:18;;;;;;;1.73;0.80;;;9.60;99.90;;;;;;4990117;28;20218;-69
2023/01/05 10:22:54;;;;;;;2.77;1.13;;;9.60;99.90;;;;;;5000875;28;20667;-69
2023/01/05 10:25:26;;;;;;;1.17;0.70;;;9.50;99.90;;;;;;5009573;28;20292;-70
2023/01/05 10:28:01;;;;;;;2.53;1.07;;;9.50;99.90;;;;;;5009639;28;20626;-70
2023/01/05 10:30:44;;;;;;;1.30;0.70;;;9.50;99.90;;;;;;5009387;28;20253;-69
2023/01/05 10:33:15;;;;;;;2.10;0.80;;;9.50;99.90;;;;;;5008860;28;20438;-69
2023/01/05 10:35:57;;;;;;;1.20;0.60;;;9.40;99.90;;;;;;5009552;28;20193;-70
2023/01/05 10:38:36;;;;;;;1.20;0.70;;;9.40;99.90;;;;;;5008807;28;20653;-69
2023/01/05 10:41:10;;;;;;;1.13;0.77;;;9.40;99.90;;;;;;5009333;28;20610;-70
2023/01/05 10:43:55;;;;;;;2.97;1.00;;;9.40;99.90;;;;;;5009360;28;20197;-69
2023/01/05 10:46:24;;;;;;;1.43;0.90;;;9.40;99.90;;;;;;4998932;28;20289;-70
2023/01/05 10:48:51;;;;;;;1.97;1.17;;;9.40;99.90;;;;;;4988741;28;20230;-69
2023/01/05 10:51:20;;;;;;;2.73;0.87;;;9.40;99.90;;;;;;4989503;28;20241;-69
2023/01/05 10:53:47;;;;;;;2.40;0.80;;;9.40;99.90;;;;;;4989133;28;20284;-70
2023/01/05 10:56:16;;;;;;;3.60;1.23;;;9.50;99.90;;;;;;4980259;28;20242;-69
2023/01/05 10:58:45;;;;;;;1.00;0.77;;;9.40;99.90;;;;;;4969881;28;20214;-69
2023/01/05 11:01:23;;;;;;;2.30;0.70;;;9.50;99.90;;;;;;4985096;28;20272;-70
2023/01/05 11:03:54;;;;;;;2.13;0.93;;;9.40;99.90;;;;;;4988820;28;20203;-69
2023/01/05 11:06:27;;;;;;;1.30;1.00;;;9.40;99.90;;;;;;4988907;28;20753;-70
2023/01/05 11:08:54;;;;;;;2.10;0.87;;;9.40;99.90;;;;;;4989220;28;20230;-69
2023/01/05 11:11:23;;;;;;;2.33;1.00;;;9.40;99.90;;;;;;4989179;28;20221;-69
2023/01/05 11:13:55;;;;;;;1.37;0.73;;;9.40;99.90;;;;;;4989001;28;20218;-70
2023/01/05 11:16:25;;;;;;;2.03;0.83;;;9.40;99.90;;;;;;4988673;28;20341;-69
2023/01/05 11:18:53;;;;;;;2.10;0.90;;;9.40;99.90;;;;;;4988740;28;20201;-70
2023/01/05 11:21:23;;;;;;;0.90;0.80;;;9.40;99.90;;;;;;4988783;28;20294;-70
2023/01/05 11:23:52;;;;;;;3.03;1.13;;;9.50;99.90;;;;;;4969569;28;20338;-69
2023/01/05 11:26:26;;;;;;;1.07;0.80;;;9.40;99.90;;;;;;4969448;28;20774;-69
2023/01/05 11:29:02;;;;;;;1.53;0.80;;;9.40;99.90;;;;;;4969477;28;20273;-70
2023/01/05 11:31:35;;;;;;;2.77;0.60;;;9.40;99.90;;;;;;4969419;28;20305;-69
2023/01/05 11:34:08;;;;;;;1.57;0.80;;;9.40;99.90;;;;;;4968863;28;20645;-70
2023/01/05 11:36:37;;;;;;;1.20;0.80;;;9.40;99.90;;;;;;4969191;28;20202;-69
2023/01/05 11:39:04;;;;;;;2.83;0.90;;;9.40;99.90;;;;;;4969150;28;20290;-70
2023/01/05 11:41:32;;;;;;;2.60;0.70;;;9.40;99.90;;;;;;4969116;28;20666;-70
2023/01/05 11:44:02;;;;;;;1.77;0.87;;;9.40;99.90;;;;;;4969180;28;20207;-70
2023/01/05 11:46:41;;;;;;;3.37;0.80;;;9.40;99.90;;;;;;4980106;28;20305;-70
2023/01/05 11:49:09;;;;;;;4.03;1.03;;;9.40;99.90;;;;;;4987946;28;20252;-70
2023/01/05 11:51:38;;;;;;;1.63;0.80;;;9.40;99.90;;;;;;4988427;28;20206;-69
2023/01/05 11:54:24;;;;;;;1.97;0.90;;;9.50;99.90;;;;;;4988210;28;20234;-70
2023/01/05 11:57:12;;;;;;;5.57;1.10;;;9.50;99.90;;;;;;4984765;28;20737;-70
2023/01/05 11:59:39;;;;;;;3.03;0.90;;;9.40;99.90;;;;;;4988048;28;20755;-70
2023/01/05 12:02:30;;;;;;;3.60;1.10;;;9.50;99.90;;;;;;4988009;28;20300;-70
2023/01/05 12:05:14;;;;;;;1.43;0.83;;;9.50;99.90;;;;;;4988106;28;20277;-69
2023/01/05 12:07:50;;;;;;;2.43;0.53;;;9.50;99.90;;;;;;4988597;28;20282;-69
2023/01/05 12:10:40;;;;;;;9.63;5.60;;;9.50;99.90;;;;;;4987842;28;20316;-70
2023/01/05 12:13:28;;;;;;;4.07;1.20;;;9.50;99.90;;;;;;4974883;28;20369;-70
2023/01/05 12:16:12;;;;;;;3.37;0.83;;;9.50;99.90;;;;;;4987652;28;20300;-69
2023/01/05 12:19:08;;;;;;;2.43;0.97;;;9.50;99.90;;;;;;4987407;28;20907;-70
2023/01/05 12:21:38;;;;;;;3.27;0.77;;;9.60;99.90;;;;;;4988093;28;20249;-69
2023/01/05 12:24:38;;;;;;;2.17;1.00;;;9.60;99.90;;;;;;4987878;28;20216;-70
2023/01/05 12:27:18;;;;;;;1.57;0.73;;;9.60;99.90;;;;;;4985289;28;20743;-70
2023/01/05 12:30:16;;;;;;;2.47;0.87;;;9.60;99.90;;;;;;4987730;28;20221;-70
2023/01/05 12:32:58;;;;;;;3.77;1.37;;;9.60;99.90;;;;;;4987863;28;20285;-70
2023/01/05 12:35:45;;;;;;;2.33;0.73;;;9.60;99.90;;;;;;4987672;28;20285;-70
2023/01/05 12:38:35;;;;;;;2.80;0.80;;;9.60;99.90;;;;;;4987887;28;20282;-69
2023/01/05 12:41:50;;;;;;;2.30;0.70;;;9.60;99.90;;;;;;4988037;28;20534;-69
2023/01/05 12:44:37;;;;;;;2.87;0.97;;;9.60;99.90;;;;;;4987951;28;20245;-70
2023/01/05 12:47:32;;;;;;;2.70;0.73;;;9.60;99.90;;;;;;4987256;28;20257;-70
2023/01/05 12:50:02;;;;;;;1.10;0.90;;;9.60;99.90;;;;;;4987659;28;20261;-70
2023/01/05 12:52:34;;;;;;;2.00;1.10;;;9.80;99.90;;;;;;4982597;28;20234;-70
2023/01/05 12:55:08;;;;;;;2.20;1.13;;;9.80;99.90;;;;;;4987497;28;20198;-70
2023/01/05 12:57:41;;;;;;;1.40;0.90;;;9.80;99.90;;;;;;4987299;28;20804;-70
2023/01/05 13:00:14;;;;;;;2.53;1.10;;;9.80;99.90;;;;;;4987290;28;20285;-70
2023/01/05 13:02:44;;;;;;;4.23;0.97;;;9.70;99.90;;;;;;4987098;28;20293;-70
2023/01/05 13:05:19;;;;;;;0.97;0.40;;;9.60;99.90;;;;;;4987504;28;20214;-70
2023/01/05 13:07:52;;;;;;;3.10;1.00;;;9.50;99.90;;;;;;4987680;28;20297;-70
2023/01/05 13:10:23;;;;;;;3.93;1.10;;;9.50;99.90;;;;;;4986990;28;20222;-70
2023/01/05 13:12:56;;;;;;;3.30;0.90;;;9.50;99.90;;;;;;4987662;28;20302;-70
2023/01/05 13:15:29;;;;;;;3.37;0.90;;;9.50;99.90;;;;;;4987353;28;20826;-70
2023/01/05 13:17:58;;;;;;;3.27;0.90;;;9.40;99.90;;;;;;4987642;28;20198;-69
2023/01/05 13:20:38;;;;;;;2.13;1.00;;;9.40;99.90;;;;;;4987365;28;20214;-70
2023/01/05 13:23:11;;;;;;;1.83;0.83;;;9.40;99.90;;;;;;4987051;28;20237;-70
2023/01/05 13:25:46;;;;;;;2.47;1.13;;;9.40;99.90;;;;;;4987968;28;20649;-70
2023/01/05 13:28:20;;;;;;;3.67;2.80;;;9.40;99.90;;;;;;4987252;28;20233;-70
2023/01/05 13:31:05;;;;;;;2.87;1.17;;;9.40;99.90;;;;;;4991020;28;20261;-70
2023/01/05 13:33:46;;;;;;;5.10;1.10;;;9.30;99.90;;;;;;4990760;28;20240;-70
2023/01/05 13:36:31;;;;;;;1.90;0.90;;;9.30;99.90;;;;;;4991211;28;20310;-70
2023/01/05 13:39:28;;;;;;;2.83;1.07;;;9.30;99.90;;;;;;4991007;28;20214;-69
2023/01/05 13:42:16;;;;;;;1.30;0.87;;;9.30;99.90;;;;;;4990911;28;20297;-70
2023/01/05 13:45:11;;;;;;;3.60;1.23;;;9.30;99.90;;;;;;4990516;28;20205;-70
2023/01/05 13:47:53;;;;;;;2.17;1.10;;;9.30;99.90;;;;;;4971054;28;20246;-70
2023/01/05 13:50:45;;;;;;;4.10;1.50;;;9.30;99.90;;;;;;4989383;28;20706;-70
2023/01/05 13:53:16;;;;;;;2.40;0.87;;;9.30;99.90;;;;;;4986933;28;20214;-70